Time;durP1;ratioP1;P1;durP2;ratioP2;P2;SDS_P1;SDS_P2;PMS_P1;PMS_P2;Temp;Humidity;BMP_temperature;BMP_pressure;BME280_temperature;BME280_humidity;BME280_pressure;Samples;Min_cycle;Max_cycle;Signal;HPM_P1;HPM_P2
2023/04/22 00:01:12;;;;;;;12.27;4.30;;;11.00;95.70;;;;;;4994474;28;20299;-88
2023/04/22 00:03:40;;;;;;;4.57;3.63;;;10.90;95.80;;;;;;5002425;28;20177;-87
2023/04/22 00:06:06;;;;;;;9.70;4.77;;;10.80;96.00;;;;;;4994572;28;20313;-88
2023/04/22 00:08:31;;;;;;;6.07;4.67;;;10.80;96.20;;;;;;4994545;28;21053;-88
2023/04/22 00:10:57;;;;;;;4.30;3.60;;;10.80;96.30;;;;;;5003337;28;20247;-89
2023/04/22 00:13:22;;;;;;;3.20;3.00;;;10.70;96.40;;;;;;4994509;28;20646;-88
2023/04/22 00:15:48;;;;;;;15.40;5.83;;;10.70;96.40;;;;;;4994574;28;20176;-88
2023/04/22 00:18:14;;;;;;;6.70;3.60;;;10.70;96.60;;;;;;4993796;28;20190;-89
2023/04/22 00:20:42;;;;;;;7.20;3.90;;;10.60;96.80;;;;;;4994446;28;20265;-88
2023/04/22 00:23:08;;;;;;;4.03;3.30;;;10.60;96.80;;;;;;5010205;28;20181;-88
2023/04/22 00:25:34;;;;;;;3.50;3.30;;;10.60;96.80;;;;;;5009840;28;20468;-88
2023/04/22 00:28:02;;;;;;;5.73;3.57;;;10.60;96.80;;;;;;5011048;28;20534;-87
2023/04/22 00:30:27;;;;;;;14.80;5.10;;;10.60;96.80;;;;;;5001663;28;20192;-89
2023/04/22 00:32:53;;;;;;;8.03;3.50;;;10.60;96.80;;;;;;4993492;28;20531;-88
2023/04/22 00:35:18;;;;;;;4.93;2.70;;;10.60;96.80;;;;;;4990235;28;20706;-88
2023/04/22 00:37:44;;;;;;;4.03;3.20;;;10.60;96.80;;;;;;4991705;28;20208;-88
2023/04/22 00:40:10;;;;;;;4.80;4.43;;;10.60;96.70;;;;;;5011586;28;20685;-87
2023/04/22 00:42:36;;;;;;;2.70;2.50;;;10.60;96.60;;;;;;4993355;28;20927;-88
2023/04/22 00:45:02;;;;;;;8.50;4.80;;;10.60;96.60;;;;;;4993673;28;20368;-88
2023/04/22 00:47:28;;;;;;;2.70;2.23;;;10.60;96.50;;;;;;5001106;28;20841;-89
2023/04/22 00:49:54;;;;;;;10.73;4.30;;;10.60;96.50;;;;;;5001936;28;20456;-88
2023/04/22 00:52:19;;;;;;;5.23;4.60;;;10.60;96.50;;;;;;4993354;28;20428;-87
2023/04/22 00:54:45;;;;;;;3.23;3.07;;;10.60;96.60;;;;;;4993282;28;20197;-87
2023/04/22 00:57:11;;;;;;;4.33;3.37;;;10.60;96.60;;;;;;5001224;28;20678;-89
2023/04/22 00:59:37;;;;;;;3.27;3.07;;;10.60;96.70;;;;;;4993334;28;20275;-88
2023/04/22 01:02:05;;;;;;;4.97;3.40;;;10.60;96.50;;;;;;5005329;28;20205;-88
2023/04/22 01:05:00;;;;;;;;;;;;;;;;;;;;;
2023/04/22 01:17:45;;;;;;;6.20;3.10;;;10.70;96.40;;;;;;5009217;28;20495;-88
2023/04/22 01:20:28;;;;;;;;;;;;;;;;;;;;;
2023/04/22 01:23:01;;;;;;;3.60;3.00;;;10.60;96.40;;;;;;5002124;28;20416;-89
2023/04/22 01:25:26;;;;;;;5.10;3.17;;;10.60;96.40;;;;;;4993697;28;20487;-88
2023/04/22 01:27:53;;;;;;;3.20;2.83;;;10.60;96.40;;;;;;4993333;28;20995;-88
2023/04/22 01:30:19;;;;;;;2.93;2.60;;;10.60;96.60;;;;;;4993387;28;20178;-88
2023/04/22 01:32:45;;;;;;;7.07;2.33;;;10.60;96.50;;;;;;4993158;28;20435;-88
2023/04/22 01:35:13;;;;;;;6.17;5.03;;;10.60;96.50;;;;;;5001171;28;20181;-89
2023/04/22 01:37:41;;;;;;;2.57;2.30;;;10.60;96.40;;;;;;4993327;28;20444;-89
2023/04/22 01:40:08;;;;;;;6.17;3.70;;;10.60;96.30;;;;;;5001528;28;20486;-88
2023/04/22 01:42:34;;;;;;;7.50;3.03;;;10.60;96.20;;;;;;4993092;28;20471;-89
2023/04/22 01:45:02;;;;;;;5.03;3.10;;;10.60;96.20;;;;;;4992932;28;20456;-88
2023/04/22 01:47:27;;;;;;;6.53;4.53;;;10.60;96.20;;;;;;5009094;28;20432;-87
2023/04/22 01:49:56;;;;;;;9.80;4.10;;;10.60;96.30;;;;;;5001772;28;20423;-89
2023/04/22 01:52:26;;;;;;;4.10;3.30;;;10.50;96.30;;;;;;4996574;28;20174;-88
2023/04/22 01:55:44;;;;;;;3.87;2.77;;;10.50;96.30;;;;;;4996099;28;20431;-87
2023/04/22 01:58:16;;;;;;;3.00;2.30;;;10.50;96.40;;;;;;4998224;28;20829;-87
2023/04/22 02:01:24;;;;;;;3.17;2.97;;;10.40;96.60;;;;;;4996362;28;20420;-89
2023/04/22 02:03:56;;;;;;;2.23;2.10;;;10.40;96.70;;;;;;5004050;28;20431;-88
2023/04/22 02:06:26;;;;;;;8.70;4.77;;;10.30;96.90;;;;;;4995769;28;20444;-87
2023/04/22 02:08:55;;;;;;;5.90;4.90;;;10.30;97.00;;;;;;4995716;28;20471;-87
2023/04/22 02:11:23;;;;;;;4.23;2.50;;;10.20;97.10;;;;;;4996128;28;20511;-88
2023/04/22 02:13:55;;;;;;;5.33;2.53;;;10.20;97.20;;;;;;4994649;28;20433;-87
2023/04/22 02:16:24;;;;;;;5.07;3.00;;;10.20;97.20;;;;;;4995624;28;20525;-87
2023/04/22 02:18:59;;;;;;;;;;;;;;;;;;;;;
2023/04/22 02:21:36;;;;;;;4.67;2.93;;;10.10;97.30;;;;;;5013717;28;20431;-87
2023/04/22 02:24:26;;;;;;;4.13;3.17;;;10.10;97.30;;;;;;5004763;28;20684;-87
2023/04/22 02:27:35;;;;;;;3.90;2.80;;;10.00;97.30;;;;;;5016783;28;20618;-88
2023/04/22 02:30:15;;;;;;;5.53;4.93;;;10.00;97.30;;;;;;5011256;28;20423;-88
2023/04/22 02:32:56;;;;;;;;;;;;;;;;;;;;;
2023/04/22 02:43:23;;;;;;;4.37;4.03;;;9.80;97.30;;;;;;5010884;28;20603;-88
2023/04/22 02:45:48;;;;;;;2.90;2.70;;;9.80;97.30;;;;;;4995310;28;20463;-88
2023/04/22 02:48:14;;;;;;;3.63;3.43;;;9.70;97.30;;;;;;5011664;28;20507;-87
2023/04/22 02:50:40;;;;;;;4.70;2.30;;;9.70;97.30;;;;;;4987296;28;20591;-89
2023/04/22 02:53:06;;;;;;;4.10;3.87;;;9.70;97.30;;;;;;5011462;28;20177;-87
2023/04/22 02:55:32;;;;;;;7.03;3.10;;;9.70;97.30;;;;;;5011347;28;20570;-88
2023/04/22 02:57:57;;;;;;;7.13;4.17;;;9.70;97.30;;;;;;4995020;28;20447;-88
2023/04/22 03:00:23;;;;;;;4.40;3.87;;;9.60;97.30;;;;;;5011193;28;20221;-87
2023/04/22 03:02:48;;;;;;;5.13;3.77;;;9.60;97.30;;;;;;5012596;28;20192;-88
2023/04/22 03:05:14;;;;;;;3.67;2.77;;;9.60;97.30;;;;;;5008963;28;20190;-88
2023/04/22 03:07:39;;;;;;;7.30;4.03;;;9.60;97.30;;;;;;5009218;28;20590;-88
2023/04/22 03:10:05;;;;;;;2.43;2.10;;;9.60;97.30;;;;;;5011542;28;20260;-89
2023/04/22 03:12:33;;;;;;;3.17;3.00;;;9.60;97.30;;;;;;5011740;28;20195;-87
2023/04/22 03:14:58;;;;;;;3.57;3.37;;;9.60;97.30;;;;;;5013473;28;20447;-90
2023/04/22 03:17:24;;;;;;;3.27;3.07;;;9.60;97.30;;;;;;5014610;28;20431;-87
2023/04/22 03:19:50;;;;;;;4.30;2.97;;;9.60;97.30;;;;;;5014475;28;20212;-87
2023/04/22 03:22:15;;;;;;;5.17;3.10;;;9.60;97.30;;;;;;5011298;28;20425;-88
2023/04/22 03:24:41;;;;;;;5.20;3.00;;;9.60;97.30;;;;;;5011969;28;20362;-87
2023/04/22 03:27:06;;;;;;;3.00;2.80;;;9.60;97.30;;;;;;5011415;28;20242;-88
2023/04/22 03:29:32;;;;;;;2.93;2.73;;;9.60;97.30;;;;;;5009886;28;20206;-88
2023/04/22 03:32:00;;;;;;;3.20;2.80;;;9.60;97.30;;;;;;5010964;28;20535;-90
2023/04/22 03:34:25;;;;;;;5.67;2.50;;;9.60;97.30;;;;;;5011046;28;20181;-89
2023/04/22 03:36:53;;;;;;;3.50;3.30;;;9.60;97.30;;;;;;5012007;28;20449;-89
2023/04/22 03:39:19;;;;;;;5.00;3.10;;;9.50;97.30;;;;;;5012074;28;20185;-88
2023/04/22 03:41:45;;;;;;;3.60;2.70;;;9.50;97.30;;;;;;5010783;28;20460;-87
2023/04/22 03:44:10;;;;;;;7.37;3.77;;;9.50;97.30;;;;;;5011875;28;20193;-88
2023/04/22 03:46:36;;;;;;;8.10;4.50;;;9.40;97.30;;;;;;5009371;28;20256;-89
2023/04/22 03:49:01;;;;;;;2.40;2.07;;;9.40;97.30;;;;;;4993975;28;20213;-88
2023/04/22 03:51:27;;;;;;;2.87;2.67;;;9.30;97.30;;;;;;5007883;28;20689;-88
2023/04/22 03:53:53;;;;;;;2.83;2.67;;;9.30;97.30;;;;;;5010860;28;20181;-87
2023/04/22 03:56:26;;;;;;;4.27;2.90;;;9.30;97.30;;;;;;5010278;28;20440;-88
2023/04/22 03:58:51;;;;;;;4.23;3.70;;;9.20;97.30;;;;;;5008335;28;20185;-87
2023/04/22 04:01:17;;;;;;;5.37;4.07;;;9.20;97.30;;;;;;5001223;28;20424;-89
2023/04/22 04:03:42;;;;;;;3.73;3.53;;;9.20;97.30;;;;;;5010458;28;20585;-87
2023/04/22 04:06:08;;;;;;;7.40;4.60;;;9.20;97.30;;;;;;5010334;28;20264;-88
2023/04/22 04:08:33;;;;;;;2.73;2.53;;;9.20;97.30;;;;;;5010484;28;20740;-88
2023/04/22 04:10:59;;;;;;;5.47;3.80;;;9.20;97.30;;;;;;5006977;28;20267;-87
2023/04/22 04:13:24;;;;;;;7.37;4.47;;;9.20;97.30;;;;;;5009710;28;20177;-88
2023/04/22 04:15:51;;;;;;;6.73;3.97;;;9.20;97.30;;;;;;4992625;28;20186;-89
2023/04/22 04:18:17;;;;;;;5.80;5.50;;;9.20;97.30;;;;;;5010570;28;20188;-88
2023/04/22 04:20:42;;;;;;;3.57;2.50;;;9.20;97.30;;;;;;5010722;28;20416;-87
2023/04/22 04:23:08;;;;;;;6.23;4.80;;;9.20;97.30;;;;;;5007276;28;20182;-88
2023/04/22 04:25:41;;;;;;;4.50;4.07;;;9.20;97.30;;;;;;4993777;28;20181;-89
2023/04/22 04:28:10;;;;;;;3.30;3.00;;;9.20;97.30;;;;;;5010090;28;20209;-88
2023/04/22 04:30:36;;;;;;;2.93;2.73;;;9.20;97.30;;;;;;5006673;28;20429;-87
2023/04/22 04:33:05;;;;;;;6.33;3.10;;;9.20;97.30;;;;;;5010082;28;20420;-87
2023/04/22 04:35:33;;;;;;;4.77;3.73;;;9.30;97.30;;;;;;5003866;28;20420;-87
2023/04/22 04:37:59;;;;;;;19.67;4.93;;;9.30;97.30;;;;;;5009107;28;20455;-87
2023/04/22 04:40:25;;;;;;;5.70;4.93;;;9.40;97.30;;;;;;5009334;28;20498;-87
2023/04/22 04:42:54;;;;;;;2.80;2.60;;;9.40;97.30;;;;;;5007569;28;20468;-88
2023/04/22 04:45:21;;;;;;;3.83;3.03;;;9.50;97.30;;;;;;5009799;28;20463;-87
2023/04/22 04:47:49;;;;;;;3.40;2.90;;;9.50;97.30;;;;;;5009353;28;21015;-87
2023/04/22 04:50:15;;;;;;;5.37;3.47;;;9.60;97.30;;;;;;5001633;28;20455;-88
2023/04/22 04:52:41;;;;;;;3.87;3.67;;;9.60;97.30;;;;;;4993303;28;20420;-87
2023/04/22 04:55:06;;;;;;;23.73;3.07;;;9.60;97.30;;;;;;5009887;28;20424;-88
2023/04/22 04:57:34;;;;;;;7.23;4.33;;;9.70;97.30;;;;;;5010125;28;20212;-88
2023/04/22 05:00:00;;;;;;;4.23;2.83;;;9.70;97.30;;;;;;5001308;28;20204;-88
2023/04/22 05:02:25;;;;;;;5.07;4.77;;;9.70;97.30;;;;;;5006026;28;20421;-88
2023/04/22 05:04:53;;;;;;;4.87;3.37;;;9.80;97.30;;;;;;5009374;28;20413;-88
2023/04/22 05:07:19;;;;;;;3.37;2.87;;;9.80;97.30;;;;;;5008366;28;20209;-87
2023/04/22 05:09:44;;;;;;;3.83;3.20;;;9.80;97.30;;;;;;5010564;28;20444;-88
2023/04/22 05:12:10;;;;;;;2.97;2.77;;;9.90;97.30;;;;;;5009374;28;20185;-89
2023/04/22 05:14:35;;;;;;;5.57;4.37;;;9.90;97.30;;;;;;5009432;28;20174;-88
2023/04/22 05:17:01;;;;;;;3.00;2.80;;;10.00;97.30;;;;;;5005970;28;20674;-87
2023/04/22 05:19:27;;;;;;;3.90;2.60;;;10.00;97.30;;;;;;4997913;28;20182;-88
2023/04/22 05:21:52;;;;;;;2.23;2.03;;;10.10;97.30;;;;;;5007392;28;20421;-89
2023/04/22 05:24:18;;;;;;;3.83;3.57;;;10.20;97.30;;;;;;5007534;28;20186;-86
2023/04/22 05:26:43;;;;;;;3.97;3.63;;;10.30;97.30;;;;;;5010249;28;20223;-87
2023/04/22 05:29:09;;;;;;;3.37;3.17;;;10.30;97.30;;;;;;5012930;28;20208;-88
2023/04/22 05:31:34;;;;;;;6.60;2.57;;;10.40;97.30;;;;;;5004592;28;20184;-88
2023/04/22 05:34:02;;;;;;;4.13;3.90;;;10.50;97.30;;;;;;5012593;28;20544;-88
2023/04/22 05:36:28;;;;;;;2.87;2.40;;;10.60;97.30;;;;;;5008039;28;20212;-88
2023/04/22 05:38:59;;;;;;;2.87;2.63;;;10.70;97.30;;;;;;5011124;28;20515;-88
2023/04/22 05:41:37;;;;;;;29.37;5.10;;;10.80;97.30;;;;;;5008809;28;20217;-87
2023/04/22 05:44:06;;;;;;;3.50;3.13;;;10.90;97.30;;;;;;4974389;28;20425;-87
2023/04/22 05:46:56;;;;;;;4.37;3.37;;;11.00;97.20;;;;;;4983244;28;20457;-88
2023/04/22 05:49:36;;;;;;;8.40;4.00;;;11.10;97.10;;;;;;4979109;28;20468;-87
2023/04/22 05:52:36;;;;;;;6.10;2.77;;;11.20;97.00;;;;;;4990687;28;20515;-87
2023/04/22 05:55:15;;;;;;;3.10;2.13;;;11.30;96.90;;;;;;4981866;28;20428;-87
2023/04/22 05:57:47;;;;;;;4.57;3.47;;;11.40;96.70;;;;;;4989785;28;20484;-88
2023/04/22 06:00:16;;;;;;;4.33;3.47;;;11.50;96.50;;;;;;4962430;28;20925;-87
2023/04/22 06:05:36;;;;;;;5.80;3.80;;;11.70;96.20;;;;;;4962261;28;20433;-88
2023/04/22 06:08:04;;;;;;;3.00;2.07;;;11.90;96.00;;;;;;4981710;28;20600;-88
2023/04/22 06:10:29;;;;;;;5.00;3.73;;;12.00;96.20;;;;;;4975967;28;20241;-88
2023/04/22 06:12:55;;;;;;;3.50;2.13;;;12.00;96.00;;;;;;4981874;28;20447;-93
2023/04/22 06:15:24;;;;;;;8.13;3.40;;;12.10;96.00;;;;;;5008210;28;20194;-93
2023/04/22 06:17:50;;;;;;;4.50;2.47;;;12.30;95.80;;;;;;4975673;28;20258;-88
2023/04/22 06:20:15;;;;;;;6.00;2.83;;;12.40;95.70;;;;;;4985204;28;20434;-88
2023/04/22 06:22:43;;;;;;;8.53;4.67;;;12.50;95.10;;;;;;4985839;28;20185;-87
2023/04/22 06:25:09;;;;;;;5.97;3.07;;;12.70;94.90;;;;;;4992856;28;20237;-88
2023/04/22 06:27:34;;;;;;;5.17;2.93;;;12.80;94.40;;;;;;4970957;28;20442;-88
2023/04/22 06:30:05;;;;;;;4.40;3.20;;;13.00;93.60;;;;;;4972075;28;20177;-88
2023/04/22 06:32:31;;;;;;;28.43;3.50;;;13.10;93.20;;;;;;4966497;28;20187;-88
2023/04/22 06:34:56;;;;;;;5.30;2.90;;;13.20;93.80;;;;;;4976562;28;20421;-87
2023/04/22 06:37:22;;;;;;;7.57;3.80;;;13.30;93.00;;;;;;4986652;28;20762;-89
2023/04/22 06:39:47;;;;;;;7.07;4.87;;;13.40;93.30;;;;;;4964820;28;20183;-88
2023/04/22 06:42:13;;;;;;;5.23;3.20;;;13.50;93.50;;;;;;4993879;28;20231;-87
2023/04/22 06:44:38;;;;;;;8.40;5.60;;;13.60;93.50;;;;;;5013083;28;20400;-88
2023/04/22 06:47:04;;;;;;;4.77;3.27;;;13.70;93.40;;;;;;5011621;28;20229;-88
2023/04/22 06:49:37;;;;;;;14.20;4.50;;;13.80;92.80;;;;;;5011787;28;20263;-88
2023/04/22 06:52:02;;;;;;;5.50;3.03;;;13.90;93.00;;;;;;4995545;28;20185;-88
2023/04/22 06:54:28;;;;;;;3.37;3.23;;;14.00;92.40;;;;;;5008447;28;20821;-88
2023/04/22 06:56:54;;;;;;;3.03;2.77;;;14.10;92.80;;;;;;5009124;28;20295;-87
2023/04/22 06:59:19;;;;;;;6.67;3.50;;;14.20;92.60;;;;;;5003587;28;20268;-88
2023/04/22 07:01:45;;;;;;;3.17;2.97;;;14.30;92.20;;;;;;5011268;28;20921;-88
2023/04/22 07:04:10;;;;;;;3.57;2.70;;;14.50;91.80;;;;;;5011604;28;20177;-87
2023/04/22 07:06:36;;;;;;;7.60;3.93;;;14.60;92.40;;;;;;5008657;28;20801;-88
2023/04/22 07:09:02;;;;;;;5.73;3.50;;;14.70;91.80;;;;;;5008484;28;20202;-88
2023/04/22 07:11:27;;;;;;;12.50;2.60;;;14.80;91.70;;;;;;5011517;28;20181;-88
2023/04/22 07:13:52;;;;;;;3.23;2.23;;;15.00;91.10;;;;;;5009216;28;20182;-90
2023/04/22 07:16:18;;;;;;;3.33;3.10;;;15.10;90.80;;;;;;5011476;28;20205;-88
2023/04/22 07:18:43;;;;;;;7.10;3.30;;;15.30;91.10;;;;;;5011195;28;20180;-88
2023/04/22 07:21:09;;;;;;;3.90;2.70;;;15.40;90.00;;;;;;5001724;28;20193;-89
2023/04/22 07:23:34;;;;;;;4.93;3.00;;;15.50;90.30;;;;;;5011704;28;20277;-88
2023/04/22 07:26:00;;;;;;;2.87;2.67;;;15.60;89.50;;;;;;5010964;28;20185;-88
2023/04/22 07:28:26;;;;;;;3.17;2.97;;;15.70;89.00;;;;;;5010731;28;20212;-88
2023/04/22 07:30:53;;;;;;;8.90;4.63;;;15.80;88.00;;;;;;4994665;28;20715;-87
2023/04/22 07:33:18;;;;;;;7.13;4.03;;;15.80;88.20;;;;;;5010848;28;20185;-88
2023/04/22 07:35:44;;;;;;;2.93;2.50;;;15.90;88.80;;;;;;5011553;28;20442;-90
2023/04/22 07:38:09;;;;;;;4.40;2.80;;;16.00;88.00;;;;;;5011221;28;20303;-88
2023/04/22 07:40:35;;;;;;;8.23;3.40;;;16.20;87.00;;;;;;5008484;28;20189;-89
2023/04/22 07:43:00;;;;;;;3.30;2.90;;;16.30;86.00;;;;;;5011298;28;20249;-88
2023/04/22 07:45:26;;;;;;;4.13;2.30;;;16.40;86.40;;;;;;5011161;28;20195;-88
2023/04/22 07:47:52;;;;;;;2.40;2.20;;;16.60;87.00;;;;;;5008461;28;20267;-88
2023/04/22 07:50:17;;;;;;;6.90;2.93;;;16.80;86.20;;;;;;5009659;28;20192;-88
2023/04/22 07:52:43;;;;;;;3.10;2.90;;;16.90;85.60;;;;;;4995025;28;20182;-89
2023/04/22 07:55:08;;;;;;;2.13;1.97;;;17.00;85.20;;;;;;4997157;28;20566;-88
2023/04/22 07:57:37;;;;;;;8.10;4.17;;;17.20;84.80;;;;;;5011869;28;20193;-88
2023/04/22 08:00:07;;;;;;;4.30;3.07;;;17.30;84.50;;;;;;5010449;28;20493;-88
2023/04/22 08:02:33;;;;;;;3.20;2.67;;;17.40;83.00;;;;;;5011732;28;20424;-88
2023/04/22 08:05:00;;;;;;;11.43;2.80;;;17.50;82.90;;;;;;5011021;28;20486;-88
2023/04/22 08:07:27;;;;;;;4.60;2.60;;;17.70;81.60;;;;;;5008132;28;20573;-89
2023/04/22 08:09:54;;;;;;;3.43;2.60;;;17.80;81.70;;;;;;5008077;28;20452;-89
2023/04/22 08:12:22;;;;;;;7.43;2.77;;;17.90;82.10;;;;;;4994610;28;20509;-88
2023/04/22 08:14:47;;;;;;;3.30;2.03;;;18.10;82.00;;;;;;5008714;28;20499;-91
2023/04/22 08:17:13;;;;;;;1.70;1.67;;;18.10;81.40;;;;;;5010220;28;20432;-87
2023/04/22 08:19:38;;;;;;;3.10;1.90;;;18.20;81.20;;;;;;5009892;28;20336;-87
2023/04/22 08:22:04;;;;;;;3.47;2.60;;;18.30;80.00;;;;;;5008887;28;20181;-88
2023/04/22 08:24:29;;;;;;;3.43;2.83;;;18.50;81.50;;;;;;5006628;28;20601;-87
2023/04/22 08:26:56;;;;;;;3.37;2.70;;;18.60;81.40;;;;;;5006732;28;20202;-89
2023/04/22 08:29:21;;;;;;;2.53;1.70;;;18.70;80.10;;;;;;5004501;28;20264;-88
2023/04/22 08:31:47;;;;;;;6.00;2.80;;;18.80;79.40;;;;;;5010339;28;20510;-88
2023/04/22 08:34:15;;;;;;;3.20;2.60;;;18.80;79.90;;;;;;5009859;28;20209;-87
2023/04/22 08:36:41;;;;;;;3.43;2.13;;;18.90;80.70;;;;;;5003343;28;20741;-87
2023/04/22 08:39:06;;;;;;;4.30;3.43;;;19.00;79.50;;;;;;5010048;28;20559;-88
2023/04/22 08:41:34;;;;;;;3.57;2.80;;;19.00;78.70;;;;;;5010016;28;20464;-88
2023/04/22 08:44:00;;;;;;;1.73;1.63;;;19.10;80.30;;;;;;5007562;28;20186;-89
2023/04/22 08:46:27;;;;;;;4.10;2.40;;;19.20;79.60;;;;;;5010167;28;20453;-88
2023/04/22 08:48:53;;;;;;;2.37;2.10;;;19.20;79.50;;;;;;5010028;28;20463;-88
2023/04/22 08:51:19;;;;;;;6.13;3.57;;;19.40;79.60;;;;;;5006637;28;20498;-88
2023/04/22 08:53:45;;;;;;;4.57;2.40;;;19.50;79.70;;;;;;5007127;28;20186;-88
2023/04/22 08:56:12;;;;;;;3.80;2.53;;;19.60;79.40;;;;;;5009869;28;20455;-88
2023/04/22 08:58:41;;;;;;;5.30;2.70;;;19.60;79.30;;;;;;5012444;28;20419;-87
2023/04/22 09:01:07;;;;;;;2.50;1.93;;;19.60;77.80;;;;;;5014580;28;20695;-87
2023/04/22 09:03:35;;;;;;;4.00;2.33;;;19.50;78.20;;;;;;5011491;28;20519;-91
2023/04/22 09:06:03;;;;;;;3.03;2.30;;;19.50;76.90;;;;;;5014743;28;21043;-87
2023/04/22 09:08:33;;;;;;;3.93;2.10;;;19.50;78.00;;;;;;5008022;28;20942;-88
2023/04/22 09:10:58;;;;;;;2.00;1.73;;;19.50;76.80;;;;;;5012233;28;20435;-89
2023/04/22 09:13:25;;;;;;;2.57;2.03;;;19.60;77.10;;;;;;5020728;28;20421;-88
2023/04/22 09:15:51;;;;;;;2.27;2.13;;;19.70;77.20;;;;;;5010562;28;20642;-88
2023/04/22 09:18:20;;;;;;;1.87;1.77;;;19.80;77.10;;;;;;5015528;28;20586;-88
2023/04/22 09:20:47;;;;;;;5.40;3.13;;;19.90;77.00;;;;;;5010912;28;20666;-86
2023/04/22 09:23:13;;;;;;;2.93;2.73;;;20.00;76.90;;;;;;5013793;28;20431;-87
2023/04/22 09:25:40;;;;;;;1.73;1.70;;;20.00;75.60;;;;;;5014002;28;20428;-87
2023/04/22 09:28:11;;;;;;;5.20;2.57;;;20.10;76.10;;;;;;5013452;28;20259;-87
2023/04/22 09:30:36;;;;;;;16.73;2.23;;;20.30;77.50;;;;;;5007565;28;20447;-90
2023/04/22 09:33:04;;;;;;;5.17;2.60;;;20.50;77.30;;;;;;5005369;28;20945;-90
2023/04/22 09:35:35;;;;;;;2.00;1.90;;;20.70;77.80;;;;;;5011042;28;20174;-89
2023/04/22 09:38:05;;;;;;;3.53;2.27;;;20.90;76.60;;;;;;4997311;28;20479;-89
2023/04/22 09:40:34;;;;;;;4.50;2.97;;;20.90;75.60;;;;;;5014303;28;20779;-91
2023/04/22 09:43:04;;;;;;;2.63;2.47;;;20.90;75.40;;;;;;5011896;28;21007;-91
2023/04/22 09:45:35;;;;;;;2.40;2.27;;;20.90;76.20;;;;;;5014315;28;20435;-89
2023/04/22 09:48:09;;;;;;;16.97;2.50;;;20.90;76.20;;;;;;5012115;28;20747;-90
2023/04/22 09:50:44;;;;;;;2.73;1.73;;;21.10;76.80;;;;;;4998209;28;20581;-90
2023/04/22 09:53:17;;;;;;;2.10;1.73;;;21.20;77.30;;;;;;5009811;28;20486;-90
2023/04/22 09:56:18;;;;;;;5.90;3.13;;;21.40;78.40;;;;;;5006724;28;20417;-85
2023/04/22 09:58:57;;;;;;;4.67;2.70;;;21.40;76.80;;;;;;4990059;28;20458;-91
2023/04/22 10:01:46;;;;;;;2.70;2.10;;;21.50;75.20;;;;;;5006821;28;20511;-89
2023/04/22 10:04:27;;;;;;;9.83;4.60;;;21.60;76.30;;;;;;5011219;28;20425;-89
2023/04/22 10:10:17;;;;;;;2.40;1.80;;;21.70;76.30;;;;;;4994073;28;20493;-89
2023/04/22 10:12:45;;;;;;;2.50;1.73;;;21.80;75.80;;;;;;5013593;28;20467;-89
2023/04/22 10:15:34;;;;;;;5.73;3.57;;;21.90;74.80;;;;;;4988853;28;20482;-88
2023/04/22 10:18:05;;;;;;;3.17;2.70;;;22.10;76.00;;;;;;4996939;28;20531;-89
2023/04/22 10:20:36;;;;;;;4.43;2.87;;;22.00;74.50;;;;;;4994417;28;20417;-90
2023/04/22 10:23:05;;;;;;;3.70;1.80;;;22.10;75.30;;;;;;5013589;28;20416;-90
2023/04/22 10:25:41;;;;;;;3.23;2.87;;;22.10;75.80;;;;;;5015764;28;20435;-89
2023/04/22 10:28:11;;;;;;;2.83;1.80;;;22.30;75.80;;;;;;5009840;28;20483;-89
2023/04/22 10:30:38;;;;;;;3.30;2.53;;;22.40;74.60;;;;;;5001958;28;20468;-91
2023/04/22 10:33:30;;;;;;;1.80;1.70;;;22.50;74.20;;;;;;5010435;28;20417;-89
2023/04/22 10:36:14;;;;;;;2.60;1.60;;;22.40;72.90;;;;;;5010140;28;20480;-89
2023/04/22 10:38:54;;;;;;;1.80;1.70;;;22.40;73.60;;;;;;5013173;28;20514;-89
2023/04/22 10:41:25;;;;;;;3.20;2.73;;;22.40;73.90;;;;;;5004700;28;20455;-89
2023/04/22 10:43:59;;;;;;;4.53;2.07;;;22.40;73.60;;;;;;5006090;28;20971;-89
2023/04/22 10:46:34;;;;;;;4.10;2.57;;;22.40;74.60;;;;;;5002062;28;20495;-89
2023/04/22 10:49:10;;;;;;;2.70;2.03;;;22.40;73.90;;;;;;5008864;28;20474;-89
2023/04/22 10:51:42;;;;;;;3.57;2.03;;;22.30;74.20;;;;;;5005421;28;20523;-91
2023/04/22 10:54:27;;;;;;;2.83;2.30;;;22.30;75.30;;;;;;5017442;28;20431;-89
2023/04/22 10:57:05;;;;;;;2.80;1.90;;;22.40;75.20;;;;;;5009795;28;20480;-91
2023/04/22 10:59:32;;;;;;;3.70;1.83;;;22.50;75.10;;;;;;4991026;28;20416;-89
2023/04/22 11:02:05;;;;;;;2.63;2.00;;;22.50;74.90;;;;;;4998124;28;20423;-90
2023/04/22 11:04:31;;;;;;;4.43;2.70;;;22.50;71.90;;;;;;4995006;28;20507;-89
2023/04/22 11:07:19;;;;;;;8.20;2.80;;;22.50;73.70;;;;;;5014954;28;20432;-88
2023/04/22 11:10:05;;;;;;;2.50;1.83;;;22.60;73.60;;;;;;4996220;28;20482;-89
2023/04/22 11:12:34;;;;;;;4.40;2.67;;;22.60;73.40;;;;;;4982761;28;20420;-89
2023/04/22 11:15:04;;;;;;;9.83;2.63;;;22.60;73.50;;;;;;5012801;28;20412;-90
2023/04/22 11:17:30;;;;;;;2.60;1.60;;;22.60;73.90;;;;;;5012684;28;20467;-91
2023/04/22 11:19:56;;;;;;;4.80;2.90;;;22.80;74.20;;;;;;5014322;28;20461;-91
2023/04/22 11:22:25;;;;;;;3.93;2.57;;;23.00;75.00;;;;;;4992902;28;20427;-90
2023/04/22 11:24:55;;;;;;;3.47;2.50;;;23.30;72.90;;;;;;5011721;28;20424;-89
2023/04/22 11:27:26;;;;;;;2.73;2.17;;;23.50;74.00;;;;;;5008584;28;20452;-87
2023/04/22 11:30:06;;;;;;;5.53;2.73;;;23.80;74.50;;;;;;5008228;28;20468;-88
2023/04/22 11:32:36;;;;;;;25.40;2.95;;;23.90;73.30;;;;;;4996899;28;21030;-87
2023/04/22 11:35:07;;;;;;;3.33;2.17;;;24.00;74.40;;;;;;5011858;28;20412;-88
2023/04/22 11:38:03;;;;;;;2.80;2.20;;;24.10;73.50;;;;;;5013320;28;20479;-88
2023/04/22 11:40:33;;;;;;;9.57;2.90;;;24.10;73.50;;;;;;4980713;28;20563;-88
2023/04/22 11:43:00;;;;;;;7.10;2.83;;;24.10;73.70;;;;;;5002916;28;20464;-87
2023/04/22 11:45:27;;;;;;;1.83;1.73;;;24.30;73.00;;;;;;4996421;28;20446;-87
2023/04/22 11:47:53;;;;;;;4.13;2.30;;;24.30;72.30;;;;;;4994472;28;20448;-90
2023/04/22 11:50:24;;;;;;;7.80;2.57;;;24.20;72.00;;;;;;4985586;28;20814;-87
2023/04/22 11:53:00;;;;;;;10.13;2.00;;;24.30;72.20;;;;;;5010937;28;20723;-87
2023/04/22 11:55:38;;;;;;;2.47;1.80;;;24.40;69.30;;;;;;4983728;28;20424;-87
2023/04/22 11:58:10;;;;;;;3.80;1.70;;;24.60;71.10;;;;;;5011559;28;20463;-87
2023/04/22 12:00:46;;;;;;;2.80;2.00;;;24.70;71.90;;;;;;5008689;28;20941;-90
2023/04/22 12:03:14;;;;;;;3.17;2.20;;;24.90;69.10;;;;;;5010067;28;20471;-87
2023/04/22 12:05:42;;;;;;;1.87;1.53;;;25.00;68.80;;;;;;5010860;28;20519;-87
2023/04/22 12:08:10;;;;;;;1.30;1.20;;;25.10;69.60;;;;;;5012563;28;20992;-87
2023/04/22 12:10:46;;;;;;;1.43;1.37;;;25.20;66.60;;;;;;5008601;28;20723;-88
2023/04/22 12:13:25;;;;;;;1.60;1.50;;;25.30;68.20;;;;;;5007732;28;20419;-88
2023/04/22 12:15:57;;;;;;;2.13;1.60;;;25.50;68.00;;;;;;5008079;28;20421;-88
2023/04/22 12:18:30;;;;;;;1.13;1.00;;;25.50;66.70;;;;;;5008489;28;20425;-89
2023/04/22 12:21:13;;;;;;;4.80;1.70;;;25.40;65.60;;;;;;4989081;28;20954;-90
2023/04/22 12:23:56;;;;;;;1.83;1.50;;;25.50;67.40;;;;;;5012994;28;20436;-87
2023/04/22 12:26:23;;;;;;;1.47;1.23;;;25.50;66.00;;;;;;5009534;28;20443;-89
2023/04/22 12:28:49;;;;;;;6.30;2.00;;;25.30;66.00;;;;;;4999832;28;20452;-87
2023/04/22 12:31:16;;;;;;;1.73;1.50;;;25.20;64.90;;;;;;5016204;28;20420;-89
2023/04/22 12:33:45;;;;;;;1.70;1.60;;;25.40;66.50;;;;;;5005922;28;20419;-89
2023/04/22 12:36:11;;;;;;;2.80;1.97;;;25.60;65.90;;;;;;4996731;28;20440;-88
2023/04/22 12:38:37;;;;;;;3.50;2.30;;;25.70;65.60;;;;;;5012474;28;20427;-85
2023/04/22 12:41:05;;;;;;;2.60;1.73;;;25.70;64.30;;;;;;5012054;28;20420;-87
2023/04/22 12:43:36;;;;;;;3.13;2.00;;;25.90;66.90;;;;;;5012563;28;20188;-90
2023/04/22 12:46:02;;;;;;;1.90;1.80;;;26.00;64.50;;;;;;5013162;28;20427;-86
2023/04/22 12:48:28;;;;;;;6.23;2.53;;;26.00;65.40;;;;;;5010705;28;20459;-86
2023/04/22 12:50:56;;;;;;;1.80;1.60;;;26.20;62.40;;;;;;5011801;28;20467;-88
2023/04/22 12:53:21;;;;;;;6.53;1.47;;;26.00;62.20;;;;;;5010607;28;20181;-87
2023/04/22 12:55:47;;;;;;;3.20;1.33;;;26.10;63.50;;;;;;5011906;28;20416;-87
2023/04/22 12:58:13;;;;;;;5.23;2.33;;;26.20;65.30;;;;;;5008518;28;20189;-89
2023/04/22 13:00:38;;;;;;;1.67;1.63;;;26.40;63.90;;;;;;4998653;28;20181;-87
2023/04/22 13:03:04;;;;;;;1.83;1.10;;;26.40;62.50;;;;;;5015838;28;20226;-88
2023/04/22 13:05:32;;;;;;;1.00;0.90;;;26.20;62.40;;;;;;5004001;28;20211;-87
2023/04/22 13:07:57;;;;;;;1.67;1.57;;;26.10;63.60;;;;;;5007517;28;20194;-87
2023/04/22 13:10:27;;;;;;;4.27;1.93;;;26.20;63.40;;;;;;4993941;28;20416;-88
2023/04/22 13:12:53;;;;;;;3.20;1.80;;;26.10;63.40;;;;;;5015641;28;20224;-88
2023/04/22 13:15:19;;;;;;;2.20;1.73;;;26.20;62.60;;;;;;5010180;28;20438;-87
2023/04/22 13:17:44;;;;;;;2.37;1.60;;;26.30;62.80;;;;;;5009946;28;20441;-87
2023/04/22 13:20:12;;;;;;;1.37;1.27;;;26.20;62.70;;;;;;5012124;28;20442;-87
2023/04/22 13:22:39;;;;;;;1.80;1.63;;;25.90;61.80;;;;;;5010494;28;20214;-87
2023/04/22 13:25:05;;;;;;;2.30;1.97;;;25.90;63.10;;;;;;4995627;28;20802;-87
2023/04/22 13:27:31;;;;;;;5.00;1.93;;;26.00;61.90;;;;;;5015015;28;20468;-87